Time,TemperatureF,DewpointF,PressureIn,WindDirection,WindDirectionDegrees,WindSpeedMPH,WindSpeedGustMPH,Humidity,HourlyPrecipIn,Conditions,Clouds,dailyrainin,SolarRadiationWatts/m^2,SoftwareType,DateUTC
2013-01-13 00:00:00,24.4,21.9,30.23,WSW,258,0.0,0.0,90,0.00,,,0.00,0,LWC V2.10 B1813,2013-01-13 08:00:00,
2013-01-13 00:05:00,24.5,22.0,30.23,WSW,258,0.0,0.0,90,0.00,,,0.00,0,LWC V2.10 B1813,2013-01-13 08:05:00,
2013-01-13 00:10:00,24.2,21.4,30.23,WSW,258,0.0,0.0,89,0.00,,,0.00,0,LWC V2.10 B1813,2013-01-13 08:10:00,
2013-01-13 00:15:00,23.9,21.1,30.23,WSW,258,0.0,0.0,89,0.00,,,0.00,0,LWC V2.10 B1813,2013-01-13 08:15:00,
2013-01-13 00:20:00,23.9,21.4,30.24,WSW,258,0.0,0.0,90,0.00,,,0.00,0,LWC V2.10 B1813,2013-01-13 08:20:00,
2013-01-13 00:25:00,23.8,21.3,30.24,WSW,258,0.0,0.0,90,0.00,,,0.00,0,LWC V2.10 B1813,2013-01-13 08:25:00,
2013-01-13 00:30:00,23.6,20.8,30.24,WSW,258,0.0,0.0,89,0.00,,,0.00,0,LWC V2.10 B1813,2013-01-13 08:30:00,
2013-01-13 00:35:00,23.3,20.8,30.23,WSW,258,0.0,0.0,90,0.00,,,0.00,0,LWC V2.10 B1813,2013-01-13 08:35:00,
2013-01-13 00:40:00,23.3,20.8,30.23,WSW,258,0.0,0.0,90,0.00,,,0.00,0,LWC V2.10 B1813,2013-01-13 08:40:00,
2013-01-13 00:45:00,23.2,20.7,30.23,WSW,258,0.0,0.0,90,0.00,,,0.00,0,LWC V2.10 B1813,2013-01-13 08:45:00,
2013-01-13 00:50:00,23.0,20.5,30.24,WSW,258,0.0,0.0,90,0.00,,,0.00,0,LWC V2.10 B1813,2013-01-13 08:50:00,
2013-01-13 00:55:00,22.8,20.3,30.24,WSW,257,0.0,0.0,90,0.00,,,0.00,0,LWC V2.10 B1813,2013-01-13 08:55:00,
2013-01-13 01:00:00,22.7,20.2,30.24,WSW,258,0.0,0.0,90,0.00,,,0.00,0,LWC V2.10 B1813,2013-01-13 09:00:00,
2013-01-13 01:05:00,22.6,20.1,30.24,WSW,257,0.0,0.0,90,0.00,,,0.00,0,LWC V2.10 B1813,2013-01-13 09:05:00,
2013-01-13 01:10:00,22.5,20.0,30.24,WSW,258,0.0,0.0,90,0.00,,,0.00,0,LWC V2.10 B1813,2013-01-13 09:10:00,
2013-01-13 01:15:00,22.5,20.0,30.24,WSW,258,0.0,0.0,90,0.00,,,0.00,0,LWC V2.10 B1813,2013-01-13 09:15:00,
2013-01-13 01:20:00,22.5,20.0,30.24,WSW,258,0.0,0.0,90,0.00,,,0.00,0,LWC V2.10 B1813,2013-01-13 09:20:00,
2013-01-13 01:25:00,22.4,19.9,30.24,WSW,258,0.0,0.0,90,0.00,,,0.00,0,LWC V2.10 B1813,2013-01-13 09:25:00,
2013-01-13 01:30:00,22.4,19.9,30.24,WSW,258,0.0,0.0,90,0.00,,,0.00,0,LWC V2.10 B1813,2013-01-13 09:30:00,
2013-01-13 01:35:00,22.3,19.8,30.24,WSW,258,0.0,0.0,90,0.00,,,0.00,0,LWC V2.10 B1813,2013-01-13 09:35:00,
2013-01-13 01:40:00,22.3,20.1,30.25,WSW,258,0.0,0.0,91,0.00,,,0.00,0,LWC V2.10 B1813,2013-01-13 09:40:00,
2013-01-13 01:45:00,22.4,20.2,30.25,WSW,258,0.0,0.0,91,0.00,,,0.00,0,LWC V2.10 B1813,2013-01-13 09:45:00,
2013-01-13 01:50:00,22.4,20.2,30.25,WSW,258,0.0,0.0,91,0.00,,,0.00,0,LWC V2.10 B1813,2013-01-13 09:50:00,
2013-01-13 01:55:00,22.5,20.3,30.25,WSW,258,0.0,0.0,91,0.00,,,0.00,0,LWC V2.10 B1813,2013-01-13 09:55:00,
2013-01-13 02:00:00,22.7,20.5,30.25,WSW,258,0.0,0.0,91,0.00,,,0.00,0,LWC V2.10 B1813,2013-01-13 10:00:00,
2013-01-13 02:05:00,23.0,20.8,30.25,WSW,258,0.0,0.0,91,0.00,,,0.00,0,LWC V2.10 B1813,2013-01-13 10:05:00,
2013-01-13 02:10:00,23.1,20.6,30.26,WSW,258,0.0,0.0,90,0.00,,,0.00,0,LWC V2.10 B1813,2013-01-13 10:10:00,
2013-01-13 02:19:00,23.1,20.6,30.26,WSW,258,0.0,0.0,90,0.00,,,0.00,0,LWC V2.10 B1813,2013-01-13 10:19:00,
2013-01-13 02:24:00,23.1,20.9,30.26,WSW,258,0.0,0.0,91,0.00,,,0.00,0,LWC V2.10 B1813,2013-01-13 10:24:00,
2013-01-13 02:29:00,23.0,20.8,30.26,WSW,258,0.0,0.0,91,0.00,,,0.00,0,LWC V2.10 B1813,2013-01-13 10:29:00,
2013-01-13 02:34:00,23.1,20.9,30.26,WSW,258,0.0,0.0,91,0.00,,,0.00,0,LWC V2.10 B1813,2013-01-13 10:34:00,
2013-01-13 02:39:00,23.1,20.9,30.26,WSW,258,0.0,0.0,91,0.00,,,0.00,0,LWC V2.10 B1813,2013-01-13 10:39:00,
2013-01-13 02:44:00,23.0,20.5,30.26,WSW,258,0.0,0.0,90,0.00,,,0.00,0,LWC V2.10 B1813,2013-01-13 10:44:00,
2013-01-13 02:49:00,22.8,20.3,30.26,WSW,258,0.0,0.0,90,0.00,,,0.00,0,LWC V2.10 B1813,2013-01-13 10:49:00,
2013-01-13 02:54:00,22.5,20.0,30.25,WSW,258,0.0,0.0,90,0.00,,,0.00,0,LWC V2.10 B1813,2013-01-13 10:54:00,
2013-01-13 02:59:00,22.3,20.1,30.25,WSW,258,0.0,0.0,91,0.00,,,0.00,0,LWC V2.10 B1813,2013-01-13 10:59:00,
2013-01-13 03:04:00,22.1,19.6,30.25,WSW,258,0.0,0.0,90,0.00,,,0.00,0,LWC V2.10 B1813,2013-01-13 11:04:00,
2013-01-13 03:09:00,22.0,19.5,30.25,WSW,258,0.0,0.0,90,0.00,,,0.00,0,LWC V2.10 B1813,2013-01-13 11:09:00,
2013-01-13 03:14:00,22.0,19.8,30.25,WSW,258,0.0,0.0,91,0.00,,,0.00,0,LWC V2.10 B1813,2013-01-13 11:14:00,
2013-01-13 03:19:00,21.8,19.3,30.25,WSW,258,0.0,0.0,90,0.00,,,0.00,0,LWC V2.10 B1813,2013-01-13 11:19:00,
2013-01-13 03:24:00,21.7,19.2,30.25,WSW,258,0.0,0.0,90,0.00,,,0.00,0,LWC V2.10 B1813,2013-01-13 11:24:00,
2013-01-13 03:29:00,21.4,19.2,30.25,WSW,258,0.0,0.0,91,0.00,,,0.00,0,LWC V2.10 B1813,2013-01-13 11:29:00,
2013-01-13 03:34:00,21.3,18.8,30.25,WSW,258,0.0,0.0,90,0.00,,,0.00,0,LWC V2.10 B1813,2013-01-13 11:34:00,
2013-01-13 03:39:00,21.2,19.0,30.24,WSW,258,0.0,0.0,91,0.00,,,0.00,0,LWC V2.10 B1813,2013-01-13 11:39:00,
2013-01-13 03:44:00,21.0,18.8,30.24,WSW,258,0.0,0.0,91,0.00,,,0.00,0,LWC V2.10 B1813,2013-01-13 11:44:00,
2013-01-13 03:49:00,21.0,18.8,30.24,WSW,258,0.0,0.0,91,0.00,,,0.00,0,LWC V2.10 B1813,2013-01-13 11:49:00,
2013-01-13 03:54:00,20.9,18.4,30.24,WSW,258,0.0,0.0,90,0.00,,,0.00,0,LWC V2.10 B1813,2013-01-13 11:54:00,
2013-01-13 03:59:00,20.8,18.6,30.23,WSW,258,0.0,0.0,91,0.00,,,0.00,0,LWC V2.10 B1813,2013-01-13 11:59:00,
2013-01-13 04:04:00,20.7,18.5,30.23,WSW,258,0.0,0.0,91,0.00,,,0.00,0,LWC V2.10 B1813,2013-01-13 12:04:00,
2013-01-13 04:09:00,20.7,18.5,30.23,WSW,258,0.0,0.0,91,0.00,,,0.00,0,LWC V2.10 B1813,2013-01-13 12:09:00,
2013-01-13 04:14:00,20.7,18.5,30.23,WSW,258,0.0,0.0,91,0.00,,,0.00,0,LWC V2.10 B1813,2013-01-13 12:14:00,
2013-01-13 04:19:00,20.4,18.2,30.23,WSW,258,0.0,0.0,91,0.00,,,0.00,0,LWC V2.10 B1813,2013-01-13 12:19:00,
2013-01-13 04:24:00,20.3,18.1,30.23,WSW,258,0.0,0.0,91,0.00,,,0.00,0,LWC V2.10 B1813,2013-01-13 12:24:00,
2013-01-13 04:29:00,20.2,17.7,30.23,WSW,258,0.0,0.0,90,0.00,,,0.00,0,LWC V2.10 B1813,2013-01-13 12:29:00,
2013-01-13 04:34:00,20.1,17.9,30.23,WSW,258,0.0,0.0,91,0.00,,,0.00,0,LWC V2.10 B1813,2013-01-13 12:34:00,
2013-01-13 04:39:00,20.0,17.8,30.23,WSW,258,0.0,0.0,91,0.00,,,0.00,0,LWC V2.10 B1813,2013-01-13 12:39:00,
2013-01-13 04:44:00,20.0,17.5,30.23,WSW,258,0.0,0.0,90,0.00,,,0.00,0,LWC V2.10 B1813,2013-01-13 12:44:00,
2013-01-13 04:49:00,19.9,17.5,30.23,WSW,258,0.0,0.0,90,0.00,,,0.00,0,LWC V2.10 B1813,2013-01-13 12:49:00,
2013-01-13 04:54:00,19.9,17.7,30.23,WSW,258,0.0,0.0,91,0.00,,,0.00,0,LWC V2.10 B1813,2013-01-13 12:54:00,
2013-01-13 04:59:00,19.8,17.4,30.23,WSW,258,0.0,0.0,90,0.00,,,0.00,0,LWC V2.10 B1813,2013-01-13 12:59:00,
2013-01-13 05:04:00,19.7,17.3,30.23,WSW,258,0.0,0.0,90,0.00,,,0.00,0,LWC V2.10 B1813,2013-01-13 13:04:00,
2013-01-13 05:09:00,19.7,17.3,30.23,WSW,258,0.0,0.0,90,0.00,,,0.00,0,LWC V2.10 B1813,2013-01-13 13:09:00,
2013-01-13 05:14:00,19.7,17.3,30.24,WSW,258,0.0,0.0,90,0.00,,,0.00,0,LWC V2.10 B1813,2013-01-13 13:14:00,
2013-01-13 05:19:00,19.8,17.4,30.24,WSW,258,0.0,0.0,90,0.00,,,0.00,0,LWC V2.10 B1813,2013-01-13 13:19:00,
2013-01-13 05:24:00,19.6,17.2,30.25,WSW,258,0.0,0.0,90,0.00,,,0.00,0,LWC V2.10 B1813,2013-01-13 13:24:00,
2013-01-13 05:29:00,19.5,17.1,30.25,WSW,258,0.0,0.0,90,0.00,,,0.00,0,LWC V2.10 B1813,2013-01-13 13:29:00,
2013-01-13 05:34:00,19.5,17.1,30.25,WSW,258,0.0,0.0,90,0.00,,,0.00,0,LWC V2.10 B1813,2013-01-13 13:34:00,
2013-01-13 05:39:00,19.3,16.9,30.25,WSW,258,0.0,0.0,90,0.00,,,0.00,0,LWC V2.10 B1813,2013-01-13 13:39:00,
2013-01-13 05:44:00,19.2,16.8,30.25,WSW,258,0.0,0.0,90,0.00,,,0.00,0,LWC V2.10 B1813,2013-01-13 13:44:00,
2013-01-13 05:49:00,19.3,16.9,30.25,WSW,258,0.0,0.0,90,0.00,,,0.00,0,LWC V2.10 B1813,2013-01-13 13:49:00,
2013-01-13 05:54:00,19.2,16.8,30.25,WSW,258,0.0,0.0,90,0.00,,,0.00,0,LWC V2.10 B1813,2013-01-13 13:54:00,
2013-01-13 05:59:00,19.0,16.6,30.25,WSW,258,0.0,0.0,90,0.00,,,0.00,0,LWC V2.10 B1813,2013-01-13 13:59:00,
2013-01-13 06:04:00,19.1,16.7,30.26,WSW,258,0.0,0.0,90,0.00,,,0.00,0,LWC V2.10 B1813,2013-01-13 14:04:00,
2013-01-13 06:09:00,19.0,16.6,30.25,WSW,258,0.0,0.0,90,0.00,,,0.00,0,LWC V2.10 B1813,2013-01-13 14:09:00,
2013-01-13 06:14:00,18.9,16.5,30.25,WSW,258,0.0,0.0,90,0.00,,,0.00,0,LWC V2.10 B1813,2013-01-13 14:14:00,
2013-01-13 06:19:00,18.9,16.5,30.25,WSW,258,0.0,0.0,90,0.00,,,0.00,0,LWC V2.10 B1813,2013-01-13 14:19:00,
2013-01-13 06:24:00,18.9,16.5,30.25,WSW,258,0.0,0.0,90,0.00,,,0.00,0,LWC V2.10 B1813,2013-01-13 14:24:00,
2013-01-13 06:29:00,18.8,16.4,30.26,WSW,258,0.0,0.0,90,0.00,,,0.00,0,LWC V2.10 B1813,2013-01-13 14:29:00,
2013-01-13 06:34:00,18.9,16.5,30.26,WSW,258,0.0,0.0,90,0.00,,,0.00,0,LWC V2.10 B1813,2013-01-13 14:34:00,
2013-01-13 06:39:00,18.9,16.5,30.26,WSW,258,0.0,0.0,90,0.00,,,0.00,0,LWC V2.10 B1813,2013-01-13 14:39:00,
2013-01-13 06:44:00,19.0,16.6,30.26,WSW,258,0.0,0.0,90,0.00,,,0.00,0,LWC V2.10 B1813,2013-01-13 14:44:00,
2013-01-13 06:49:00,19.0,16.6,30.26,WSW,258,0.0,0.0,90,0.00,,,0.00,0,LWC V2.10 B1813,2013-01-13 14:49:00,
2013-01-13 06:54:00,18.8,16.1,30.26,WSW,258,0.0,0.0,89,0.00,,,0.00,0,LWC V2.10 B1813,2013-01-13 14:54:00,
2013-01-13 06:59:00,18.8,16.1,30.27,WSW,258,0.0,0.0,89,0.00,,,0.00,0,LWC V2.10 B1813,2013-01-13 14:59:00,
2013-01-13 07:04:00,18.7,16.3,30.27,WSW,258,0.0,0.0,90,0.00,,,0.00,0,LWC V2.10 B1813,2013-01-13 15:04:00,
2013-01-13 07:09:00,18.6,16.2,30.27,WSW,258,0.0,0.0,90,0.00,,,0.00,0,LWC V2.10 B1813,2013-01-13 15:09:00,
2013-01-13 07:14:00,18.7,16.3,30.28,WSW,258,0.0,0.0,90,0.00,,,0.00,0,LWC V2.10 B1813,2013-01-13 15:14:00,
2013-01-13 07:19:00,18.6,16.2,30.28,WSW,258,0.0,0.0,90,0.00,,,0.00,7,LWC V2.10 B1813,2013-01-13 15:19:00,
2013-01-13 07:24:00,18.7,16.3,30.28,WSW,258,0.0,0.0,90,0.00,,,0.00,7,LWC V2.10 B1813,2013-01-13 15:24:00,
2013-01-13 07:29:00,18.7,16.3,30.28,WSW,258,0.0,0.0,90,0.00,,,0.00,9,LWC V2.10 B1813,2013-01-13 15:29:00,
2013-01-13 07:34:00,18.9,16.5,30.28,WSW,258,0.0,0.0,90,0.00,,,0.00,9,LWC V2.10 B1813,2013-01-13 15:34:00,
2013-01-13 07:39:00,19.0,16.6,30.28,WSW,258,0.0,0.0,90,0.00,,,0.00,12,LWC V2.10 B1813,2013-01-13 15:39:00,
2013-01-13 07:44:00,19.1,16.7,30.28,WSW,258,0.0,0.0,90,0.00,,,0.00,14,LWC V2.10 B1813,2013-01-13 15:44:00,
2013-01-13 07:49:00,19.2,16.8,30.28,WSW,258,0.0,0.0,90,0.00,,,0.00,14,LWC V2.10 B1813,2013-01-13 15:49:00,
2013-01-13 07:54:00,19.3,16.9,30.28,WSW,258,0.0,0.0,90,0.00,,,0.00,16,LWC V2.10 B1813,2013-01-13 15:54:00,
2013-01-13 07:59:00,19.4,17.0,30.28,WSW,258,0.0,0.0,90,0.00,,,0.00,18,LWC V2.10 B1813,2013-01-13 15:59:00,
2013-01-13 08:04:00,19.8,17.4,30.28,WSW,258,0.0,0.0,90,0.00,,,0.00,16,LWC V2.10 B1813,2013-01-13 16:04:00,
2013-01-13 08:09:00,19.9,17.7,30.29,WSW,258,0.0,0.0,91,0.00,,,0.00,16,LWC V2.10 B1813,2013-01-13 16:09:00,
2013-01-13 08:14:00,20.2,17.7,30.29,WSW,258,0.0,0.0,90,0.00,,,0.00,18,LWC V2.10 B1813,2013-01-13 16:14:00,
2013-01-13 08:19:00,20.4,17.9,30.29,WSW,258,0.0,0.0,90,0.00,,,0.00,19,LWC V2.10 B1813,2013-01-13 16:19:00,
2013-01-13 08:24:00,20.5,18.0,30.28,WSW,258,0.0,0.0,90,0.00,,,0.00,21,LWC V2.10 B1813,2013-01-13 16:24:00,
2013-01-13 08:29:00,20.8,18.6,30.28,WSW,258,0.0,0.0,91,0.00,,,0.00,21,LWC V2.10 B1813,2013-01-13 16:29:00,
2013-01-13 08:34:00,21.2,19.0,30.27,WSW,258,0.0,0.0,91,0.00,,,0.00,21,LWC V2.10 B1813,2013-01-13 16:34:00,
2013-01-13 08:39:00,21.5,19.0,30.28,WSW,258,0.0,0.0,90,0.00,,,0.00,21,LWC V2.10 B1813,2013-01-13 16:39:00,
2013-01-13 08:44:00,21.9,19.7,30.28,WSW,258,0.0,0.0,91,0.00,,,0.00,23,LWC V2.10 B1813,2013-01-13 16:44:00,
2013-01-13 08:49:00,22.1,19.6,30.27,WSW,258,0.0,0.0,90,0.00,,,0.00,23,LWC V2.10 B1813,2013-01-13 16:49:00,
2013-01-13 08:54:00,22.4,19.9,30.27,WSW,258,0.0,0.0,90,0.00,,,0.00,23,LWC V2.10 B1813,2013-01-13 16:54:00,
2013-01-13 08:59:00,22.6,20.1,30.27,WSW,258,0.0,0.0,90,0.00,,,0.00,25,LWC V2.10 B1813,2013-01-13 16:59:00,
2013-01-13 09:04:00,23.1,20.6,30.27,WSW,258,0.0,0.0,90,0.00,,,0.00,26,LWC V2.10 B1813,2013-01-13 17:04:00,
2013-01-13 09:09:00,23.4,20.9,30.27,WSW,258,0.0,0.0,90,0.00,,,0.00,25,LWC V2.10 B1813,2013-01-13 17:09:00,
2013-01-13 09:14:00,23.8,21.0,30.27,WSW,258,0.0,0.0,89,0.00,,,0.00,39,LWC V2.10 B1813,2013-01-13 17:14:00,
2013-01-13 09:19:00,24.1,21.1,30.27,WSW,258,0.0,0.0,88,0.00,,,0.00,28,LWC V2.10 B1813,2013-01-13 17:19:00,
2013-01-13 09:24:00,24.7,21.7,30.27,WSW,258,0.0,0.0,88,0.00,,,0.00,42,LWC V2.10 B1813,2013-01-13 17:24:00,
2013-01-13 09:29:00,25.3,22.0,30.27,WSW,258,0.0,0.0,87,0.00,,,0.00,88,LWC V2.10 B1813,2013-01-13 17:29:00,
2013-01-13 09:34:00,26.3,22.4,30.27,WSW,258,0.0,0.0,85,0.00,,,0.00,60,LWC V2.10 B1813,2013-01-13 17:34:00,
2013-01-13 09:39:00,27.2,23.0,30.27,WSW,258,0.0,0.0,84,0.00,,,0.00,40,LWC V2.10 B1813,2013-01-13 17:39:00,
2013-01-13 09:44:00,27.5,22.5,30.27,WSW,258,0.0,0.0,81,0.00,,,0.00,49,LWC V2.10 B1813,2013-01-13 17:44:00,
2013-01-13 09:49:00,28.5,23.1,30.27,WSW,258,0.0,2.0,80,0.00,,,0.00,35,LWC V2.10 B1813,2013-01-13 17:49:00,
2013-01-13 09:54:00,29.0,22.7,30.27,WSW,258,0.0,1.0,77,0.00,,,0.00,33,LWC V2.10 B1813,2013-01-13 17:54:00,
2013-01-13 09:59:00,30.3,21.0,30.27,WSW,258,0.0,2.0,68,0.00,,,0.00,37,LWC V2.10 B1813,2013-01-13 17:59:00,
2013-01-13 10:04:00,31.4,20.3,30.26,WSW,258,2.0,3.0,63,0.00,,,0.00,60,LWC V2.10 B1813,2013-01-13 18:04:00,
2013-01-13 10:09:00,32.4,21.2,30.26,WSW,241,2.0,2.0,63,0.00,,,0.00,158,LWC V2.10 B1813,2013-01-13 18:09:00,
2013-01-13 10:14:00,32.5,20.6,30.26,South,188,0.0,3.0,61,0.00,,,0.00,69,LWC V2.10 B1813,2013-01-13 18:14:00,
2013-01-13 10:19:00,32.5,20.6,30.26,South,178,6.0,6.0,61,0.00,,,0.00,132,LWC V2.10 B1813,2013-01-13 18:19:00,
2013-01-13 10:24:00,32.8,21.2,30.25,SSE,161,2.0,7.0,62,0.00,,,0.00,471,LWC V2.10 B1813,2013-01-13 18:24:00,
2013-01-13 10:29:00,33.5,20.7,30.25,South,176,7.0,9.0,59,0.00,,,0.00,408,LWC V2.10 B1813,2013-01-13 18:29:00,
2013-01-13 10:34:00,33.1,20.7,30.25,SSE,165,6.0,7.0,60,0.00,,,0.00,353,LWC V2.10 B1813,2013-01-13 18:34:00,
2013-01-13 10:39:00,32.9,19.4,30.25,South,173,4.0,7.0,57,0.00,,,0.00,62,LWC V2.10 B1813,2013-01-13 18:39:00,
2013-01-13 10:44:00,32.8,19.3,30.24,South,178,3.0,4.0,57,0.00,,,0.00,74,LWC V2.10 B1813,2013-01-13 18:44:00,
2013-01-13 10:49:00,33.2,20.4,30.24,South,173,3.0,3.0,59,0.00,,,0.00,120,LWC V2.10 B1813,2013-01-13 18:49:00,
2013-01-13 10:54:00,34.1,20.5,30.24,South,184,7.0,11.0,57,0.00,,,0.00,496,LWC V2.10 B1813,2013-01-13 18:54:00,
2013-01-13 10:59:00,34.1,20.9,30.24,West,274,7.0,7.0,58,0.00,,,0.00,496,LWC V2.10 B1813,2013-01-13 18:59:00,
2013-01-13 11:04:00,34.8,21.1,30.23,NW,311,1.0,3.0,57,0.00,,,0.00,462,LWC V2.10 B1813,2013-01-13 19:04:00,
2013-01-13 11:09:00,35.3,20.8,30.23,West,274,1.0,7.0,55,0.00,,,0.00,517,LWC V2.10 B1813,2013-01-13 19:09:00,
2013-01-13 11:14:00,35.2,22.7,30.24,NE,51,0.0,7.0,60,0.00,,,0.00,533,LWC V2.10 B1813,2013-01-13 19:14:00,
2013-01-13 11:19:00,35.4,22.5,30.24,SW,231,2.0,6.0,59,0.00,,,0.00,510,LWC V2.10 B1813,2013-01-13 19:19:00,
2013-01-13 11:24:00,35.6,22.7,30.23,West,259,2.0,7.0,59,0.00,,,0.00,357,LWC V2.10 B1813,2013-01-13 19:24:00,
2013-01-13 11:29:00,35.8,23.3,30.23,SSE,165,3.0,6.0,60,0.00,,,0.00,483,LWC V2.10 B1813,2013-01-13 19:29:00,
2013-01-13 11:34:00,35.6,23.1,30.23,North,5,2.0,4.0,60,0.00,,,0.00,443,LWC V2.10 B1813,2013-01-13 19:34:00,
2013-01-13 11:39:00,36.1,23.6,30.23,SW,219,1.0,4.0,60,0.00,,,0.00,227,LWC V2.10 B1813,2013-01-13 19:39:00,
2013-01-13 11:44:00,36.4,23.1,30.23,WSW,246,2.0,6.0,58,0.00,,,0.00,186,LWC V2.10 B1813,2013-01-13 19:44:00,
2013-01-13 11:49:00,36.1,23.6,30.23,SSE,159,1.0,1.0,60,0.00,,,0.00,113,LWC V2.10 B1813,2013-01-13 19:49:00,
2013-01-13 11:54:00,36.4,23.1,30.22,South,175,6.0,9.0,58,0.00,,,0.00,230,LWC V2.10 B1813,2013-01-13 19:54:00,
2013-01-13 11:59:00,36.4,23.1,30.22,South,172,3.0,6.0,58,0.00,,,0.00,390,LWC V2.10 B1813,2013-01-13 19:59:00,
2013-01-13 12:04:00,36.6,22.8,30.22,WNW,294,2.0,4.0,57,0.00,,,0.00,118,LWC V2.10 B1813,2013-01-13 20:04:00,
2013-01-13 12:09:00,36.0,22.7,30.21,SSE,151,0.0,1.0,58,0.00,,,0.00,385,LWC V2.10 B1813,2013-01-13 20:09:00,
2013-01-13 12:14:00,36.8,23.4,30.21,South,176,6.0,7.0,58,0.00,,,0.00,411,LWC V2.10 B1813,2013-01-13 20:14:00,
2013-01-13 12:19:00,36.7,23.3,30.20,South,174,6.0,7.0,58,0.00,,,0.00,396,LWC V2.10 B1813,2013-01-13 20:19:00,
2013-01-13 12:25:00,37.0,22.8,30.20,SSW,213,4.0,5.0,56,0.00,,,0.00,448,LWC V2.10 B1813,2013-01-13 20:25:00,
2013-01-13 12:29:00,37.1,23.3,30.19,South,185,1.0,7.0,57,0.00,,,0.00,506,LWC V2.10 B1813,2013-01-13 20:29:00,
2013-01-13 12:35:00,37.0,22.8,30.19,SSW,196,4.0,4.0,56,0.00,,,0.00,455,LWC V2.10 B1813,2013-01-13 20:35:00,
2013-01-13 12:40:00,36.7,22.9,30.19,South,180,5.0,7.0,57,0.00,,,0.00,508,LWC V2.10 B1813,2013-01-13 20:40:00,
2013-01-13 12:45:00,36.9,23.1,30.19,WSW,240,2.0,4.0,57,0.00,,,0.00,541,LWC V2.10 B1813,2013-01-13 20:45:00,
2013-01-13 12:50:00,36.4,23.5,30.19,SSE,156,5.0,8.0,59,0.00,,,0.00,545,LWC V2.10 B1813,2013-01-13 20:50:00,
2013-01-13 12:55:00,36.7,23.3,30.19,SW,215,3.0,3.0,58,0.00,,,0.00,640,LWC V2.10 B1813,2013-01-13 20:55:00,
2013-01-13 13:00:00,37.7,23.9,30.19,SSE,158,6.0,7.0,57,0.00,,,0.00,594,LWC V2.10 B1813,2013-01-13 21:00:00,
2013-01-13 13:05:00,37.3,23.5,30.19,South,182,9.0,11.0,57,0.00,,,0.00,529,LWC V2.10 B1813,2013-01-13 21:05:00,
2013-01-13 13:10:00,36.7,23.3,30.19,SSE,161,9.0,9.0,58,0.00,,,0.00,577,LWC V2.10 B1813,2013-01-13 21:10:00,
2013-01-13 13:15:00,36.8,23.8,30.18,SW,229,2.0,8.0,59,0.00,,,0.00,260,LWC V2.10 B1813,2013-01-13 21:15:00,
2013-01-13 13:20:00,36.3,23.4,30.19,SSW,213,4.0,7.0,59,0.00,,,0.00,199,LWC V2.10 B1813,2013-01-13 21:20:00,
2013-01-13 13:25:00,35.5,23.4,30.19,SSE,159,8.0,10.0,61,0.00,,,0.00,185,LWC V2.10 B1813,2013-01-13 21:25:00,
2013-01-13 13:30:00,35.3,23.6,30.19,SSE,156,8.0,10.0,62,0.00,,,0.00,128,LWC V2.10 B1813,2013-01-13 21:30:00,
2013-01-13 13:35:00,34.6,22.9,30.19,SSW,200,2.0,8.0,62,0.00,,,0.00,141,LWC V2.10 B1813,2013-01-13 21:35:00,
2013-01-13 13:40:00,35.2,24.3,30.19,South,175,4.0,4.0,64,0.00,,,0.00,329,LWC V2.10 B1813,2013-01-13 21:40:00,
2013-01-13 13:45:00,35.5,24.5,30.19,WSW,248,3.0,4.0,64,0.00,,,0.00,132,LWC V2.10 B1813,2013-01-13 21:45:00,
2013-01-13 13:50:00,35.0,24.4,30.19,South,189,5.0,5.0,65,0.00,,,0.00,102,LWC V2.10 B1813,2013-01-13 21:50:00,
2013-01-13 13:55:00,34.8,25.0,30.19,NE,36,2.0,5.0,67,0.00,,,0.00,93,LWC V2.10 B1813,2013-01-13 21:55:00,
2013-01-13 14:00:00,34.7,24.9,30.19,SW,227,0.0,3.0,67,0.00,,,0.00,100,LWC V2.10 B1813,2013-01-13 22:00:00,
2013-01-13 14:05:00,34.4,25.3,30.19,WSW,238,2.0,4.0,69,0.00,,,0.00,83,LWC V2.10 B1813,2013-01-13 22:05:00,
2013-01-13 14:10:00,34.3,25.5,30.19,SW,225,1.0,3.0,70,0.00,,,0.00,70,LWC V2.10 B1813,2013-01-13 22:10:00,
2013-01-13 14:15:00,34.4,25.3,30.19,West,274,0.0,5.0,69,0.00,,,0.00,77,LWC V2.10 B1813,2013-01-13 22:15:00,
2013-01-13 14:20:00,34.1,25.4,30.19,SW,227,0.0,4.0,70,0.00,,,0.00,76,LWC V2.10 B1813,2013-01-13 22:20:00,
2013-01-13 14:25:00,33.7,24.6,30.19,SW,219,2.0,4.0,69,0.00,,,0.00,67,LWC V2.10 B1813,2013-01-13 22:25:00,
2013-01-13 14:30:00,33.4,25.0,30.19,SSE,163,4.0,4.0,71,0.00,,,0.00,51,LWC V2.10 B1813,2013-01-13 22:30:00,
2013-01-13 14:35:00,33.6,25.6,30.19,SSW,200,0.0,1.0,72,0.00,,,0.00,56,LWC V2.10 B1813,2013-01-13 22:35:00,
2013-01-13 14:40:00,33.4,25.7,30.19,SSW,200,0.0,1.0,73,0.00,,,0.00,70,LWC V2.10 B1813,2013-01-13 22:40:00,
2013-01-13 14:45:00,33.3,25.6,30.19,SSW,207,0.0,3.0,73,0.00,,,0.00,53,LWC V2.10 B1813,2013-01-13 22:45:00,
2013-01-13 14:50:00,33.3,25.9,30.19,West,267,0.0,1.0,74,0.00,,,0.00,47,LWC V2.10 B1813,2013-01-13 22:50:00,
2013-01-13 14:55:00,33.2,25.8,30.19,West,267,0.0,1.0,74,0.00,,,0.00,44,LWC V2.10 B1813,2013-01-13 22:55:00,
2013-01-13 15:00:00,33.4,26.0,30.19,West,267,0.0,1.0,74,0.00,,,0.00,35,LWC V2.10 B1813,2013-01-13 23:00:00,
2013-01-13 15:05:00,33.4,26.3,30.19,West,267,0.0,2.0,75,0.00,,,0.00,37,LWC V2.10 B1813,2013-01-13 23:05:00,
2013-01-13 15:10:00,33.2,26.1,30.19,South,182,1.0,3.0,75,0.00,,,0.00,33,LWC V2.10 B1813,2013-01-13 23:10:00,
2013-01-13 15:15:00,33.1,26.4,30.19,South,182,3.0,3.0,76,0.00,,,0.00,33,LWC V2.10 B1813,2013-01-13 23:15:00,
2013-01-13 15:20:00,32.8,26.1,30.19,SW,230,0.0,3.0,76,0.00,,,0.00,28,LWC V2.10 B1813,2013-01-13 23:20:00,
2013-01-13 15:25:00,32.7,26.3,30.19,SW,229,1.0,2.0,77,0.00,,,0.00,23,LWC V2.10 B1813,2013-01-13 23:25:00,
2013-01-13 15:30:00,32.7,26.3,30.19,SW,229,0.0,2.0,77,0.00,,,0.00,30,LWC V2.10 B1813,2013-01-13 23:30:00,
2013-01-13 15:35:00,32.7,26.6,30.19,SW,230,0.0,3.0,78,0.00,,,0.00,28,LWC V2.10 B1813,2013-01-13 23:35:00,
2013-01-13 15:40:00,32.7,26.6,30.19,SW,230,0.0,0.0,78,0.00,,,0.00,25,LWC V2.10 B1813,2013-01-13 23:40:00,
2013-01-13 15:45:00,32.6,26.5,30.19,SW,229,3.0,3.0,78,0.00,,,0.00,25,LWC V2.10 B1813,2013-01-13 23:45:00,
2013-01-13 15:50:00,32.6,26.8,30.19,SW,215,0.0,0.0,79,0.00,,,0.00,16,LWC V2.10 B1813,2013-01-13 23:50:00,
2013-01-13 15:55:00,32.4,26.3,30.19,East,82,0.0,0.0,78,0.00,,,0.00,14,LWC V2.10 B1813,2013-01-13 23:55:00,
2013-01-13 16:00:00,32.6,26.8,30.19,East,82,0.0,1.0,79,0.00,,,0.00,16,LWC V2.10 B1813,2013-01-14 00:00:00,
2013-01-13 16:05:00,32.4,26.3,30.19,East,82,0.0,0.0,78,0.00,,,0.00,14,LWC V2.10 B1813,2013-01-14 00:05:00,
2013-01-13 16:10:00,32.4,26.3,30.19,East,84,0.0,0.0,78,0.00,,,0.00,12,LWC V2.10 B1813,2013-01-14 00:10:00,
2013-01-13 16:15:00,32.3,26.5,30.19,East,84,0.0,0.0,79,0.00,,,0.00,12,LWC V2.10 B1813,2013-01-14 00:15:00,
2013-01-13 16:20:00,32.4,26.6,30.19,East,84,0.0,0.0,79,0.00,,,0.00,7,LWC V2.10 B1813,2013-01-14 00:20:00,
2013-01-13 16:25:00,32.3,26.5,30.19,East,84,0.0,0.0,79,0.00,,,0.00,7,LWC V2.10 B1813,2013-01-14 00:25:00,
2013-01-13 16:30:00,32.4,26.3,30.19,East,84,0.0,1.0,78,0.00,,,0.00,7,LWC V2.10 B1813,2013-01-14 00:30:00,
2013-01-13 16:35:00,32.3,26.2,30.19,East,84,0.0,0.0,78,0.00,,,0.00,9,LWC V2.10 B1813,2013-01-14 00:35:00,
2013-01-13 16:40:00,32.4,26.3,30.19,East,84,0.0,1.0,78,0.00,,,0.00,7,LWC V2.10 B1813,2013-01-14 00:40:00,
2013-01-13 16:45:00,32.2,26.1,30.19,East,84,0.0,0.0,78,0.00,,,0.00,7,LWC V2.10 B1813,2013-01-14 00:45:00,
2013-01-13 16:50:00,32.1,26.3,30.19,East,84,0.0,0.0,79,0.00,,,0.00,0,LWC V2.10 B1813,2013-01-14 00:50:00,
2013-01-13 16:55:00,32.1,26.3,30.19,East,84,0.0,0.0,79,0.00,,,0.00,0,LWC V2.10 B1813,2013-01-14 00:55:00,
2013-01-13 17:00:00,32.1,26.3,30.19,East,84,0.0,1.0,79,0.00,,,0.00,0,LWC V2.10 B1813,2013-01-14 01:00:00,
2013-01-13 17:05:00,31.9,26.4,30.19,East,84,2.0,2.0,80,0.00,,,0.00,0,LWC V2.10 B1813,2013-01-14 01:05:00,
2013-01-13 17:10:00,31.9,26.4,30.19,SSE,153,0.0,1.0,80,0.00,,,0.00,0,LWC V2.10 B1813,2013-01-14 01:10:00,
2013-01-13 17:15:00,31.9,26.4,30.19,SSE,154,0.0,0.0,80,0.00,,,0.00,0,LWC V2.10 B1813,2013-01-14 01:15:00,
2013-01-13 17:20:00,31.8,26.3,30.19,SSE,154,0.0,0.0,80,0.00,,,0.00,0,LWC V2.10 B1813,2013-01-14 01:20:00,
2013-01-13 17:25:00,31.7,26.2,30.19,SSE,154,0.0,2.0,80,0.00,,,0.00,0,LWC V2.10 B1813,2013-01-14 01:25:00,
2013-01-13 17:30:00,31.8,26.6,30.19,SSE,153,0.0,1.0,81,0.00,,,0.00,0,LWC V2.10 B1813,2013-01-14 01:30:00,
2013-01-13 17:35:00,31.8,26.6,30.19,SSE,153,0.0,2.0,81,0.00,,,0.00,0,LWC V2.10 B1813,2013-01-14 01:35:00,
2013-01-13 17:40:00,31.9,26.7,30.19,SSE,153,0.0,0.0,81,0.00,,,0.00,0,LWC V2.10 B1813,2013-01-14 01:40:00,
2013-01-13 17:45:00,31.8,26.6,30.19,SSE,154,0.0,1.0,81,0.00,,,0.00,0,LWC V2.10 B1813,2013-01-14 01:45:00,
2013-01-13 17:50:00,31.8,26.6,30.19,SSE,153,0.0,0.0,81,0.00,,,0.00,0,LWC V2.10 B1813,2013-01-14 01:50:00,
2013-01-13 17:55:00,31.7,26.5,30.19,SSE,154,0.0,0.0,81,0.00,,,0.00,0,LWC V2.10 B1813,2013-01-14 01:55:00,
2013-01-13 18:00:00,31.6,26.7,30.19,SSE,154,0.0,0.0,82,0.00,,,0.00,0,LWC V2.10 B1813,2013-01-14 02:00:00,
2013-01-13 18:05:00,31.6,26.7,30.19,SSE,154,0.0,1.0,82,0.00,,,0.00,0,LWC V2.10 B1813,2013-01-14 02:05:00,
2013-01-13 18:10:00,31.6,26.5,30.19,SSE,154,0.0,1.0,81,0.00,,,0.00,0,LWC V2.10 B1813,2013-01-14 02:10:00,
2013-01-13 18:15:00,31.5,26.7,30.19,SSE,154,0.0,0.0,82,0.00,,,0.00,0,LWC V2.10 B1813,2013-01-14 02:15:00,
2013-01-13 18:20:00,31.3,26.5,30.19,SSE,153,0.0,1.0,82,0.00,,,0.00,0,LWC V2.10 B1813,2013-01-14 02:20:00,
2013-01-13 18:25:00,31.1,26.3,30.19,SSE,153,0.0,0.0,82,0.00,,,0.00,0,LWC V2.10 B1813,2013-01-14 02:25:00,
2013-01-13 18:30:00,30.9,26.4,30.19,SSE,154,0.0,0.0,83,0.00,,,0.00,0,LWC V2.10 B1813,2013-01-14 02:30:00,
2013-01-13 18:35:00,30.8,26.5,30.19,SSE,153,0.0,0.0,84,0.00,,,0.00,0,LWC V2.10 B1813,2013-01-14 02:35:00,
2013-01-13 18:40:00,30.6,26.1,30.19,SSE,153,0.0,0.0,83,0.00,,,0.00,0,LWC V2.10 B1813,2013-01-14 02:40:00,
2013-01-13 18:45:00,30.3,26.1,30.19,SSE,154,0.0,0.0,84,0.00,,,0.00,0,LWC V2.10 B1813,2013-01-14 02:45:00,
2013-01-13 18:50:00,30.1,25.9,30.19,SSE,153,0.0,0.0,84,0.00,,,0.00,0,LWC V2.10 B1813,2013-01-14 02:50:00,
2013-01-13 18:55:00,30.0,26.0,30.19,SSE,154,0.0,0.0,85,0.00,,,0.00,0,LWC V2.10 B1813,2013-01-14 02:55:00,
2013-01-13 19:00:00,29.6,25.7,30.19,SSE,154,0.0,0.0,85,0.00,,,0.00,0,LWC V2.10 B1813,2013-01-14 03:00:00,
2013-01-13 19:05:00,29.3,25.4,30.19,SSE,154,0.0,0.0,85,0.00,,,0.00,0,LWC V2.10 B1813,2013-01-14 03:05:00,
2013-01-13 19:10:00,29.2,25.5,30.19,SSE,154,0.0,0.0,86,0.00,,,0.00,0,LWC V2.10 B1813,2013-01-14 03:10:00,
2013-01-13 19:15:00,28.8,25.2,30.19,SSE,154,0.0,0.0,86,0.00,,,0.00,0,LWC V2.10 B1813,2013-01-14 03:15:00,
2013-01-13 19:20:00,28.5,24.9,30.19,SSE,154,0.0,0.0,86,0.00,,,0.00,0,LWC V2.10 B1813,2013-01-14 03:20:00,
2013-01-13 19:25:00,28.3,24.9,30.19,SSE,154,0.0,0.0,87,0.00,,,0.00,0,LWC V2.10 B1813,2013-01-14 03:25:00,
2013-01-13 19:30:00,28.1,24.7,30.19,SSE,154,0.0,0.0,87,0.00,,,0.00,0,LWC V2.10 B1813,2013-01-14 03:30:00,
2013-01-13 19:35:00,28.0,24.6,30.19,SSE,154,0.0,0.0,87,0.00,,,0.00,0,LWC V2.10 B1813,2013-01-14 03:35:00,
2013-01-13 19:40:00,27.8,24.4,30.19,SSE,154,0.0,0.0,87,0.00,,,0.00,0,LWC V2.10 B1813,2013-01-14 03:40:00,
2013-01-13 19:45:00,27.6,24.2,30.19,SSE,154,0.0,0.0,87,0.00,,,0.00,0,LWC V2.10 B1813,2013-01-14 03:45:00,
2013-01-13 19:50:00,27.3,24.0,30.19,SSE,154,0.0,0.0,87,0.00,,,0.00,0,LWC V2.10 B1813,2013-01-14 03:50:00,
2013-01-13 19:55:00,27.2,24.1,30.19,SSE,153,0.0,0.0,88,0.00,,,0.00,0,LWC V2.10 B1813,2013-01-14 03:55:00,
2013-01-13 20:00:00,27.0,23.9,30.19,SSE,154,0.0,0.0,88,0.00,,,0.00,0,LWC V2.10 B1813,2013-01-14 04:00:00,
2013-01-13 20:05:00,26.9,23.6,30.20,SSE,154,0.0,0.0,87,0.00,,,0.00,0,LWC V2.10 B1813,2013-01-14 04:05:00,
2013-01-13 20:10:00,26.7,23.6,30.19,SSE,153,0.0,0.0,88,0.00,,,0.00,0,LWC V2.10 B1813,2013-01-14 04:10:00,
2013-01-13 20:15:00,26.5,23.4,30.20,SSE,153,0.0,0.0,88,0.00,,,0.00,0,LWC V2.10 B1813,2013-01-14 04:15:00,
2013-01-13 20:20:00,26.5,23.4,30.20,SSE,153,0.0,0.0,88,0.00,,,0.00,0,LWC V2.10 B1813,2013-01-14 04:20:00,
2013-01-13 20:25:00,26.3,23.2,30.20,SSE,153,0.0,0.0,88,0.00,,,0.00,0,LWC V2.10 B1813,2013-01-14 04:25:00,
2013-01-13 20:30:00,26.1,23.0,30.20,SSE,154,0.0,0.0,88,0.00,,,0.00,0,LWC V2.10 B1813,2013-01-14 04:30:00,
2013-01-13 20:35:00,26.2,23.1,30.20,SSE,154,0.0,0.0,88,0.00,,,0.00,0,LWC V2.10 B1813,2013-01-14 04:35:00,
2013-01-13 20:40:00,26.0,22.9,30.20,SSE,154,0.0,0.0,88,0.00,,,0.00,0,LWC V2.10 B1813,2013-01-14 04:40:00,
2013-01-13 20:45:00,25.8,22.7,30.20,SSE,154,0.0,0.0,88,0.00,,,0.00,0,LWC V2.10 B1813,2013-01-14 04:45:00,
2013-01-13 20:50:00,25.6,22.3,30.20,SSE,153,0.0,0.0,87,0.00,,,0.00,0,LWC V2.10 B1813,2013-01-14 04:50:00,
2013-01-13 20:55:00,25.4,22.1,30.20,SSE,153,0.0,1.0,87,0.00,,,0.00,0,LWC V2.10 B1813,2013-01-14 04:55:00,
2013-01-13 21:00:00,25.3,22.0,30.20,SSE,153,0.0,0.0,87,0.00,,,0.00,0,LWC V2.10 B1813,2013-01-14 05:00:00,
2013-01-13 21:02:00,25.3,22.0,30.20,SSE,154,0.0,0.0,87,0.00,,,0.00,0,LWC V2.10 B1813,2013-01-14 05:02:00,
2013-01-13 21:03:00,25.3,22.0,30.20,SSE,154,0.0,0.0,87,0.00,,,0.00,0,LWC V2.10 B1813,2013-01-14 05:03:00,
2013-01-13 21:08:00,25.1,21.8,30.21,SSE,154,0.0,0.0,87,0.00,,,0.00,0,LWC V2.10 B1813,2013-01-14 05:08:00,
2013-01-13 21:13:00,24.9,21.6,30.21,SSE,154,0.0,0.0,87,0.00,,,0.00,0,LWC V2.10 B1813,2013-01-14 05:13:00,
2013-01-13 21:18:00,24.7,21.4,30.21,SSE,153,0.0,0.0,87,0.00,,,0.00,0,LWC V2.10 B1813,2013-01-14 05:18:00,
2013-01-13 21:23:00,24.5,21.2,30.21,SSE,154,0.0,0.0,87,0.00,,,0.00,0,LWC V2.10 B1813,2013-01-14 05:23:00,
2013-01-13 21:28:00,24.4,21.1,30.21,SSE,154,0.0,0.0,87,0.00,,,0.00,0,LWC V2.10 B1813,2013-01-14 05:28:00,
2013-01-13 21:33:00,24.3,21.0,30.21,SSE,154,0.0,0.0,87,0.00,,,0.00,0,LWC V2.10 B1813,2013-01-14 05:33:00,
2013-01-13 21:38:00,24.1,20.8,30.22,SSE,154,0.0,0.0,87,0.00,,,0.00,0,LWC V2.10 B1813,2013-01-14 05:38:00,
2013-01-13 21:43:00,23.9,20.3,30.22,SSE,154,0.0,0.0,86,0.00,,,0.00,0,LWC V2.10 B1813,2013-01-14 05:43:00,
2013-01-13 21:48:00,23.8,20.5,30.22,SSE,154,0.0,0.0,87,0.00,,,0.00,0,LWC V2.10 B1813,2013-01-14 05:48:00,
2013-01-13 21:53:00,23.6,20.0,30.22,SSE,154,0.0,0.0,86,0.00,,,0.00,0,LWC V2.10 B1813,2013-01-14 05:53:00,
2013-01-13 21:58:00,23.4,19.8,30.22,SSE,154,0.0,0.0,86,0.00,,,0.00,0,LWC V2.10 B1813,2013-01-14 05:58:00,
2013-01-13 22:03:00,23.4,19.8,30.22,SSE,154,0.0,0.0,86,0.00,,,0.00,0,LWC V2.10 B1813,2013-01-14 06:03:00,
2013-01-13 22:08:00,23.2,19.4,30.22,SSE,153,0.0,0.0,85,0.00,,,0.00,0,LWC V2.10 B1813,2013-01-14 06:08:00,
2013-01-13 22:13:00,23.0,19.2,30.22,SSE,153,0.0,0.0,85,0.00,,,0.00,0,LWC V2.10 B1813,2013-01-14 06:13:00,
2013-01-13 22:18:00,22.9,19.4,30.23,SSE,154,0.0,0.0,86,0.00,,,0.00,0,LWC V2.10 B1813,2013-01-14 06:18:00,
2013-01-13 22:23:00,22.7,19.2,30.23,SSE,154,0.0,0.0,86,0.00,,,0.00,0,LWC V2.10 B1813,2013-01-14 06:23:00,
2013-01-13 22:28:00,22.7,19.4,30.23,SSE,154,0.0,1.0,87,0.00,,,0.00,0,LWC V2.10 B1813,2013-01-14 06:28:00,
2013-01-13 22:33:00,22.6,19.1,30.23,SSE,154,0.0,0.0,86,0.00,,,0.00,0,LWC V2.10 B1813,2013-01-14 06:33:00,
2013-01-13 22:38:00,22.5,19.2,30.23,SSE,153,0.0,0.0,87,0.00,,,0.00,0,LWC V2.10 B1813,2013-01-14 06:38:00,
2013-01-13 22:43:00,22.3,19.0,30.23,SSE,154,0.0,0.0,87,0.00,,,0.00,0,LWC V2.10 B1813,2013-01-14 06:43:00,
2013-01-13 22:48:00,22.2,18.9,30.23,SSE,154,0.0,0.0,87,0.00,,,0.00,0,LWC V2.10 B1813,2013-01-14 06:48:00,
2013-01-13 22:53:00,22.1,18.6,30.24,SSE,154,0.0,0.0,86,0.00,,,0.00,0,LWC V2.10 B1813,2013-01-14 06:53:00,
2013-01-13 22:58:00,22.0,18.7,30.24,SSE,153,0.0,0.0,87,0.00,,,0.00,0,LWC V2.10 B1813,2013-01-14 06:58:00,
2013-01-13 23:03:00,22.0,18.7,30.24,SSE,154,0.0,0.0,87,0.00,,,0.00,0,LWC V2.10 B1813,2013-01-14 07:03:00,
2013-01-13 23:08:00,22.0,18.7,30.24,SSE,154,0.0,0.0,87,0.00,,,0.00,0,LWC V2.10 B1813,2013-01-14 07:08:00,
2013-01-13 23:13:00,21.8,18.5,30.24,SSE,154,0.0,0.0,87,0.00,,,0.00,0,LWC V2.10 B1813,2013-01-14 07:13:00,
2013-01-13 23:18:00,21.6,18.3,30.25,SSE,153,0.0,0.0,87,0.00,,,0.00,0,LWC V2.10 B1813,2013-01-14 07:18:00,
2013-01-13 23:23:00,21.4,18.1,30.25,SSE,154,0.0,0.0,87,0.00,,,0.00,0,LWC V2.10 B1813,2013-01-14 07:23:00,
2013-01-13 23:28:00,21.4,18.4,30.25,SSE,153,0.0,0.0,88,0.00,,,0.00,0,LWC V2.10 B1813,2013-01-14 07:28:00,
2013-01-13 23:33:00,21.4,18.1,30.25,SSE,153,1.0,1.0,87,0.00,,,0.00,0,LWC V2.10 B1813,2013-01-14 07:33:00,
2013-01-13 23:38:00,21.3,18.3,30.25,SSE,154,0.0,0.0,88,0.00,,,0.00,0,LWC V2.10 B1813,2013-01-14 07:38:00,
2013-01-13 23:43:00,21.3,18.3,30.25,SSE,154,0.0,0.0,88,0.00,,,0.00,0,LWC V2.10 B1813,2013-01-14 07:43:00,
2013-01-13 23:48:00,21.3,18.3,30.25,SSE,154,0.0,0.0,88,0.00,,,0.00,0,LWC V2.10 B1813,2013-01-14 07:48:00,
2013-01-13 23:53:00,21.5,18.5,30.25,SSE,154,0.0,0.0,88,0.00,,,0.00,0,LWC V2.10 B1813,2013-01-14 07:53:00,
2013-01-13 23:58:00,21.1,17.8,30.25,SSE,154,0.0,0.0,87,0.00,,,0.00,0,LWC V2.10 B1813,2013-01-14 07:58:00,